sensor_id;sensor_type;location;lat;lon;timestamp;P1;durP1;ratioP1;P2;durP2;ratioP2
11691;SDS011;33659;42.672;23.354;2024-01-30T00:01:56;4.23;;;3.73;;
11691;SDS011;33659;42.672;23.354;2024-01-30T00:04:24;3.67;;;2.97;;
11691;SDS011;33659;42.672;23.354;2024-01-30T00:06:51;5.97;;;3.77;;
11691;SDS011;33659;42.672;23.354;2024-01-30T00:09:19;4.70;;;3.77;;
11691;SDS011;33659;42.672;23.354;2024-01-30T00:11:45;6.57;;;3.60;;
11691;SDS011;33659;42.672;23.354;2024-01-30T00:14:12;3.77;;;3.10;;
11691;SDS011;33659;42.672;23.354;2024-01-30T00:16:39;4.90;;;3.00;;
11691;SDS011;33659;42.672;23.354;2024-01-30T00:19:05;4.00;;;3.60;;
11691;SDS011;33659;42.672;23.354;2024-01-30T00:21:34;4.93;;;3.80;;
11691;SDS011;33659;42.672;23.354;2024-01-30T00:24:01;5.10;;;3.20;;
11691;SDS011;33659;42.672;23.354;2024-01-30T00:26:28;3.40;;;3.10;;
11691;SDS011;33659;42.672;23.354;2024-01-30T00:28:54;4.67;;;3.60;;
11691;SDS011;33659;42.672;23.354;2024-01-30T00:31:21;3.90;;;3.37;;
11691;SDS011;33659;42.672;23.354;2024-01-30T00:33:48;4.03;;;3.10;;
11691;SDS011;33659;42.672;23.354;2024-01-30T00:36:14;5.13;;;3.50;;
11691;SDS011;33659;42.672;23.354;2024-01-30T00:38:43;4.00;;;3.43;;
11691;SDS011;33659;42.672;23.354;2024-01-30T00:41:09;3.77;;;3.07;;
11691;SDS011;33659;42.672;23.354;2024-01-30T00:43:36;4.00;;;3.60;;
11691;SDS011;33659;42.672;23.354;2024-01-30T00:46:03;5.47;;;3.80;;
11691;SDS011;33659;42.672;23.354;2024-01-30T00:48:29;4.30;;;3.37;;
11691;SDS011;33659;42.672;23.354;2024-01-30T00:50:56;4.83;;;3.63;;
11691;SDS011;33659;42.672;23.354;2024-01-30T00:53:23;4.17;;;3.77;;
11691;SDS011;33659;42.672;23.354;2024-01-30T00:55:51;4.63;;;3.93;;
11691;SDS011;33659;42.672;23.354;2024-01-30T00:58:17;5.70;;;3.77;;
11691;SDS011;33659;42.672;23.354;2024-01-30T01:00:44;6.80;;;4.13;;
11691;SDS011;33659;42.672;23.354;2024-01-30T01:03:11;5.30;;;3.70;;
11691;SDS011;33659;42.672;23.354;2024-01-30T01:05:39;5.93;;;3.60;;
11691;SDS011;33659;42.672;23.354;2024-01-30T01:08:06;4.50;;;3.60;;
11691;SDS011;33659;42.672;23.354;2024-01-30T01:10:32;4.87;;;3.50;;
11691;SDS011;33659;42.672;23.354;2024-01-30T01:13:00;6.93;;;3.70;;
11691;SDS011;33659;42.672;23.354;2024-01-30T01:15:27;4.27;;;3.70;;
11691;SDS011;33659;42.672;23.354;2024-01-30T01:17:54;6.00;;;3.90;;
11691;SDS011;33659;42.672;23.354;2024-01-30T01:20:20;5.43;;;3.83;;
11691;SDS011;33659;42.672;23.354;2024-01-30T01:22:47;4.53;;;3.53;;
11691;SDS011;33659;42.672;23.354;2024-01-30T01:25:14;4.33;;;3.43;;
11691;SDS011;33659;42.672;23.354;2024-01-30T01:27:40;4.20;;;3.63;;
11691;SDS011;33659;42.672;23.354;2024-01-30T01:30:10;4.90;;;4.00;;
11691;SDS011;33659;42.672;23.354;2024-01-30T01:32:43;4.40;;;3.23;;
11691;SDS011;33659;42.672;23.354;2024-01-30T01:35:15;3.93;;;3.37;;
11691;SDS011;33659;42.672;23.354;2024-01-30T01:37:42;4.20;;;3.37;;
11691;SDS011;33659;42.672;23.354;2024-01-30T01:40:08;4.87;;;3.60;;
11691;SDS011;33659;42.672;23.354;2024-01-30T01:42:35;4.70;;;3.67;;
11691;SDS011;33659;42.672;23.354;2024-01-30T01:45:03;3.57;;;3.20;;
11691;SDS011;33659;42.672;23.354;2024-01-30T01:47:32;4.63;;;3.50;;
11691;SDS011;33659;42.672;23.354;2024-01-30T01:49:58;5.90;;;3.70;;
11691;SDS011;33659;42.672;23.354;2024-01-30T01:52:25;3.30;;;3.00;;
11691;SDS011;33659;42.672;23.354;2024-01-30T01:54:52;4.27;;;3.00;;
11691;SDS011;33659;42.672;23.354;2024-01-30T01:57:19;3.97;;;3.50;;
11691;SDS011;33659;42.672;23.354;2024-01-30T01:59:46;3.47;;;3.17;;
11691;SDS011;33659;42.672;23.354;2024-01-30T02:02:13;4.03;;;3.57;;
11691;SDS011;33659;42.672;23.354;2024-01-30T02:04:45;3.40;;;3.03;;
11691;SDS011;33659;42.672;23.354;2024-01-30T02:07:12;4.10;;;3.60;;
11691;SDS011;33659;42.672;23.354;2024-01-30T02:09:38;5.20;;;2.90;;
11691;SDS011;33659;42.672;23.354;2024-01-30T02:12:05;3.73;;;3.30;;
11691;SDS011;33659;42.672;23.354;2024-01-30T02:14:32;3.70;;;3.30;;
11691;SDS011;33659;42.672;23.354;2024-01-30T02:16:59;5.60;;;3.47;;
11691;SDS011;33659;42.672;23.354;2024-01-30T02:19:26;5.30;;;3.77;;
11691;SDS011;33659;42.672;23.354;2024-01-30T02:21:54;4.33;;;3.17;;
11691;SDS011;33659;42.672;23.354;2024-01-30T02:24:21;4.60;;;3.70;;
11691;SDS011;33659;42.672;23.354;2024-01-30T02:26:47;3.03;;;2.73;;
11691;SDS011;33659;42.672;23.354;2024-01-30T02:29:14;4.37;;;3.53;;
11691;SDS011;33659;42.672;23.354;2024-01-30T02:31:40;4.23;;;3.13;;
11691;SDS011;33659;42.672;23.354;2024-01-30T02:34:07;4.23;;;3.50;;
11691;SDS011;33659;42.672;23.354;2024-01-30T02:36:34;3.93;;;3.53;;
11691;SDS011;33659;42.672;23.354;2024-01-30T02:39:02;3.87;;;3.17;;
11691;SDS011;33659;42.672;23.354;2024-01-30T02:41:28;3.70;;;3.10;;
11691;SDS011;33659;42.672;23.354;2024-01-30T02:43:55;3.43;;;3.07;;
11691;SDS011;33659;42.672;23.354;2024-01-30T02:46:22;4.00;;;3.20;;
11691;SDS011;33659;42.672;23.354;2024-01-30T02:48:48;3.73;;;3.20;;
11691;SDS011;33659;42.672;23.354;2024-01-30T02:51:15;5.60;;;3.50;;
11691;SDS011;33659;42.672;23.354;2024-01-30T02:53:41;4.37;;;3.43;;
11691;SDS011;33659;42.672;23.354;2024-01-30T02:56:09;3.13;;;2.77;;
11691;SDS011;33659;42.672;23.354;2024-01-30T02:58:38;3.73;;;3.37;;
11691;SDS011;33659;42.672;23.354;2024-01-30T03:01:06;4.13;;;3.37;;
11691;SDS011;33659;42.672;23.354;2024-01-30T03:03:33;4.77;;;3.40;;
11691;SDS011;33659;42.672;23.354;2024-01-30T03:06:01;3.90;;;3.10;;
11691;SDS011;33659;42.672;23.354;2024-01-30T03:08:27;3.43;;;2.80;;
11691;SDS011;33659;42.672;23.354;2024-01-30T03:10:54;5.17;;;3.63;;
11691;SDS011;33659;42.672;23.354;2024-01-30T03:13:22;6.30;;;3.80;;
11691;SDS011;33659;42.672;23.354;2024-01-30T03:15:50;3.67;;;3.23;;
11691;SDS011;33659;42.672;23.354;2024-01-30T03:18:17;4.90;;;2.90;;
11691;SDS011;33659;42.672;23.354;2024-01-30T03:20:43;4.30;;;3.30;;
11691;SDS011;33659;42.672;23.354;2024-01-30T03:23:10;3.63;;;3.27;;
11691;SDS011;33659;42.672;23.354;2024-01-30T03:25:36;3.83;;;3.43;;
11691;SDS011;33659;42.672;23.354;2024-01-30T03:28:03;3.90;;;2.97;;
11691;SDS011;33659;42.672;23.354;2024-01-30T03:30:34;3.53;;;3.23;;
11691;SDS011;33659;42.672;23.354;2024-01-30T03:32:59;3.27;;;3.03;;
11691;SDS011;33659;42.672;23.354;2024-01-30T03:35:26;3.07;;;2.77;;
11691;SDS011;33659;42.672;23.354;2024-01-30T03:37:53;3.93;;;3.33;;
11691;SDS011;33659;42.672;23.354;2024-01-30T03:40:19;4.60;;;3.03;;
11691;SDS011;33659;42.672;23.354;2024-01-30T03:42:46;4.43;;;3.20;;
11691;SDS011;33659;42.672;23.354;2024-01-30T03:45:13;5.00;;;3.30;;
11691;SDS011;33659;42.672;23.354;2024-01-30T03:47:41;4.13;;;3.30;;
11691;SDS011;33659;42.672;23.354;2024-01-30T03:50:09;3.97;;;3.30;;
11691;SDS011;33659;42.672;23.354;2024-01-30T03:52:36;3.97;;;3.50;;
11691;SDS011;33659;42.672;23.354;2024-01-30T03:55:03;5.00;;;3.57;;
11691;SDS011;33659;42.672;23.354;2024-01-30T03:57:30;4.07;;;3.20;;
11691;SDS011;33659;42.672;23.354;2024-01-30T03:59:57;3.90;;;3.07;;
11691;SDS011;33659;42.672;23.354;2024-01-30T04:02:23;3.37;;;3.07;;
11691;SDS011;33659;42.672;23.354;2024-01-30T04:04:51;6.80;;;3.03;;
11691;SDS011;33659;42.672;23.354;2024-01-30T04:07:17;4.87;;;3.30;;
11691;SDS011;33659;42.672;23.354;2024-01-30T04:09:44;4.33;;;3.20;;
11691;SDS011;33659;42.672;23.354;2024-01-30T04:12:11;3.80;;;3.20;;
11691;SDS011;33659;42.672;23.354;2024-01-30T04:14:37;3.60;;;2.53;;
11691;SDS011;33659;42.672;23.354;2024-01-30T04:17:05;4.30;;;3.00;;
11691;SDS011;33659;42.672;23.354;2024-01-30T04:19:32;3.80;;;3.10;;
11691;SDS011;33659;42.672;23.354;2024-01-30T04:22:00;3.30;;;3.00;;
11691;SDS011;33659;42.672;23.354;2024-01-30T04:24:26;5.23;;;3.27;;
11691;SDS011;33659;42.672;23.354;2024-01-30T04:26:53;3.47;;;3.17;;
11691;SDS011;33659;42.672;23.354;2024-01-30T04:29:20;3.47;;;2.87;;
11691;SDS011;33659;42.672;23.354;2024-01-30T04:31:47;3.80;;;3.40;;
11691;SDS011;33659;42.672;23.354;2024-01-30T04:34:14;3.30;;;3.00;;
11691;SDS011;33659;42.672;23.354;2024-01-30T04:36:43;3.67;;;3.10;;
11691;SDS011;33659;42.672;23.354;2024-01-30T04:39:12;4.30;;;2.97;;
11691;SDS011;33659;42.672;23.354;2024-01-30T04:41:38;4.43;;;3.23;;
11691;SDS011;33659;42.672;23.354;2024-01-30T04:44:05;5.80;;;3.40;;
11691;SDS011;33659;42.672;23.354;2024-01-30T04:46:32;13.37;;;3.40;;
11691;SDS011;33659;42.672;23.354;2024-01-30T04:48:59;3.70;;;3.00;;
11691;SDS011;33659;42.672;23.354;2024-01-30T04:51:26;5.27;;;3.53;;
11691;SDS011;33659;42.672;23.354;2024-01-30T04:53:53;6.37;;;3.00;;
11691;SDS011;33659;42.672;23.354;2024-01-30T04:56:21;3.97;;;3.50;;
11691;SDS011;33659;42.672;23.354;2024-01-30T04:58:47;4.30;;;3.43;;
11691;SDS011;33659;42.672;23.354;2024-01-30T05:01:14;5.13;;;3.27;;
11691;SDS011;33659;42.672;23.354;2024-01-30T05:03:41;5.47;;;3.03;;
11691;SDS011;33659;42.672;23.354;2024-01-30T05:06:08;3.77;;;3.00;;
11691;SDS011;33659;42.672;23.354;2024-01-30T05:08:34;4.83;;;3.30;;
11691;SDS011;33659;42.672;23.354;2024-01-30T05:11:01;3.07;;;2.77;;
11691;SDS011;33659;42.672;23.354;2024-01-30T05:13:30;3.80;;;2.90;;
11691;SDS011;33659;42.672;23.354;2024-01-30T05:15:56;3.10;;;2.90;;
11691;SDS011;33659;42.672;23.354;2024-01-30T05:18:23;2.77;;;2.50;;
11691;SDS011;33659;42.672;23.354;2024-01-30T05:20:50;7.03;;;2.53;;
11691;SDS011;33659;42.672;23.354;2024-01-30T05:23:16;6.80;;;3.40;;
11691;SDS011;33659;42.672;23.354;2024-01-30T05:25:43;8.53;;;3.10;;
11691;SDS011;33659;42.672;23.354;2024-01-30T05:28:10;3.63;;;2.97;;
11691;SDS011;33659;42.672;23.354;2024-01-30T05:30:38;4.13;;;3.17;;
11691;SDS011;33659;42.672;23.354;2024-01-30T05:33:04;4.57;;;2.80;;
11691;SDS011;33659;42.672;23.354;2024-01-30T05:35:31;4.53;;;3.37;;
11691;SDS011;33659;42.672;23.354;2024-01-30T05:37:58;3.63;;;3.17;;
11691;SDS011;33659;42.672;23.354;2024-01-30T05:40:24;3.30;;;2.90;;
11691;SDS011;33659;42.672;23.354;2024-01-30T05:42:51;7.23;;;3.30;;
11691;SDS011;33659;42.672;23.354;2024-01-30T05:45:18;10.10;;;3.73;;
11691;SDS011;33659;42.672;23.354;2024-01-30T05:47:46;4.77;;;3.50;;
11691;SDS011;33659;42.672;23.354;2024-01-30T05:50:13;4.97;;;3.50;;
11691;SDS011;33659;42.672;23.354;2024-01-30T05:52:40;3.87;;;2.80;;
11691;SDS011;33659;42.672;23.354;2024-01-30T05:55:07;4.87;;;3.47;;
11691;SDS011;33659;42.672;23.354;2024-01-30T05:57:34;9.17;;;3.97;;
11691;SDS011;33659;42.672;23.354;2024-01-30T06:00:01;3.97;;;3.40;;
11691;SDS011;33659;42.672;23.354;2024-01-30T06:02:28;7.47;;;4.30;;
11691;SDS011;33659;42.672;23.354;2024-01-30T06:04:56;6.80;;;4.23;;
11691;SDS011;33659;42.672;23.354;2024-01-30T06:07:23;5.13;;;3.30;;
11691;SDS011;33659;42.672;23.354;2024-01-30T06:09:50;8.90;;;3.87;;
11691;SDS011;33659;42.672;23.354;2024-01-30T06:12:16;6.53;;;4.20;;
11691;SDS011;33659;42.672;23.354;2024-01-30T06:14:43;5.27;;;3.40;;
11691;SDS011;33659;42.672;23.354;2024-01-30T06:17:10;4.10;;;3.30;;
11691;SDS011;33659;42.672;23.354;2024-01-30T06:19:37;12.50;;;4.10;;
11691;SDS011;33659;42.672;23.354;2024-01-30T06:22:05;10.43;;;3.93;;
11691;SDS011;33659;42.672;23.354;2024-01-30T06:24:32;10.57;;;4.03;;
11691;SDS011;33659;42.672;23.354;2024-01-30T06:26:59;7.73;;;4.27;;
11691;SDS011;33659;42.672;23.354;2024-01-30T06:29:26;7.17;;;3.77;;
11691;SDS011;33659;42.672;23.354;2024-01-30T06:31:52;11.00;;;3.80;;
11691;SDS011;33659;42.672;23.354;2024-01-30T06:34:19;4.23;;;3.60;;
11691;SDS011;33659;42.672;23.354;2024-01-30T06:36:46;4.70;;;3.43;;
11691;SDS011;33659;42.672;23.354;2024-01-30T06:39:14;13.07;;;4.83;;
11691;SDS011;33659;42.672;23.354;2024-01-30T06:41:40;9.10;;;4.30;;
11691;SDS011;33659;42.672;23.354;2024-01-30T06:44:07;8.47;;;4.17;;
11691;SDS011;33659;42.672;23.354;2024-01-30T06:46:33;7.90;;;4.13;;
11691;SDS011;33659;42.672;23.354;2024-01-30T06:49:01;8.20;;;4.00;;
11691;SDS011;33659;42.672;23.354;2024-01-30T06:51:27;7.30;;;3.83;;
11691;SDS011;33659;42.672;23.354;2024-01-30T06:53:54;11.37;;;4.67;;
11691;SDS011;33659;42.672;23.354;2024-01-30T06:56:22;5.77;;;3.33;;
11691;SDS011;33659;42.672;23.354;2024-01-30T06:58:49;5.23;;;3.60;;
11691;SDS011;33659;42.672;23.354;2024-01-30T07:01:16;6.77;;;3.87;;
11691;SDS011;33659;42.672;23.354;2024-01-30T07:03:43;7.23;;;4.23;;
11691;SDS011;33659;42.672;23.354;2024-01-30T07:06:10;5.50;;;3.00;;
11691;SDS011;33659;42.672;23.354;2024-01-30T07:08:37;5.70;;;3.10;;
11691;SDS011;33659;42.672;23.354;2024-01-30T07:11:04;3.87;;;3.20;;
11691;SDS011;33659;42.672;23.354;2024-01-30T07:13:32;8.83;;;3.20;;
11691;SDS011;33659;42.672;23.354;2024-01-30T07:15:58;3.40;;;3.10;;
11691;SDS011;33659;42.672;23.354;2024-01-30T07:18:25;4.60;;;3.17;;
11691;SDS011;33659;42.672;23.354;2024-01-30T07:20:52;6.23;;;3.53;;
11691;SDS011;33659;42.672;23.354;2024-01-30T07:23:18;3.50;;;3.20;;
11691;SDS011;33659;42.672;23.354;2024-01-30T07:25:45;6.20;;;2.87;;
11691;SDS011;33659;42.672;23.354;2024-01-30T07:28:13;5.23;;;3.50;;
11691;SDS011;33659;42.672;23.354;2024-01-30T07:30:43;5.87;;;3.30;;
11691;SDS011;33659;42.672;23.354;2024-01-30T07:33:10;2.87;;;2.47;;
11691;SDS011;33659;42.672;23.354;2024-01-30T07:35:36;3.83;;;2.90;;
11691;SDS011;33659;42.672;23.354;2024-01-30T07:38:03;4.43;;;2.60;;
11691;SDS011;33659;42.672;23.354;2024-01-30T07:40:30;3.47;;;3.17;;
11691;SDS011;33659;42.672;23.354;2024-01-30T07:42:58;2.50;;;2.30;;
11691;SDS011;33659;42.672;23.354;2024-01-30T07:45:25;3.10;;;2.47;;
11691;SDS011;33659;42.672;23.354;2024-01-30T07:47:59;2.83;;;2.40;;
11691;SDS011;33659;42.672;23.354;2024-01-30T07:50:26;3.37;;;3.07;;
11691;SDS011;33659;42.672;23.354;2024-01-30T07:52:53;2.73;;;2.53;;
11691;SDS011;33659;42.672;23.354;2024-01-30T07:55:20;4.20;;;3.10;;
11691;SDS011;33659;42.672;23.354;2024-01-30T07:57:49;2.63;;;2.43;;
11691;SDS011;33659;42.672;23.354;2024-01-30T08:00:16;6.43;;;3.10;;
11691;SDS011;33659;42.672;23.354;2024-01-30T08:02:44;4.97;;;3.30;;
11691;SDS011;33659;42.672;23.354;2024-01-30T08:05:12;3.57;;;2.90;;
11691;SDS011;33659;42.672;23.354;2024-01-30T08:07:40;4.63;;;3.13;;
11691;SDS011;33659;42.672;23.354;2024-01-30T08:10:07;3.07;;;2.80;;
11691;SDS011;33659;42.672;23.354;2024-01-30T08:12:34;3.07;;;2.83;;
11691;SDS011;33659;42.672;23.354;2024-01-30T08:15:01;4.47;;;2.53;;
11691;SDS011;33659;42.672;23.354;2024-01-30T08:17:28;2.87;;;2.67;;
11691;SDS011;33659;42.672;23.354;2024-01-30T08:19:55;3.07;;;2.77;;
11691;SDS011;33659;42.672;23.354;2024-01-30T08:22:23;3.63;;;2.80;;
11691;SDS011;33659;42.672;23.354;2024-01-30T08:24:49;2.70;;;2.50;;
11691;SDS011;33659;42.672;23.354;2024-01-30T08:27:17;3.40;;;2.77;;
11691;SDS011;33659;42.672;23.354;2024-01-30T08:29:43;3.90;;;3.43;;
11691;SDS011;33659;42.672;23.354;2024-01-30T08:32:11;4.07;;;3.10;;
11691;SDS011;33659;42.672;23.354;2024-01-30T08:34:38;3.63;;;2.70;;
11691;SDS011;33659;42.672;23.354;2024-01-30T08:37:04;3.70;;;2.90;;
11691;SDS011;33659;42.672;23.354;2024-01-30T08:39:32;3.13;;;2.83;;
11691;SDS011;33659;42.672;23.354;2024-01-30T08:41:59;3.57;;;2.80;;
11691;SDS011;33659;42.672;23.354;2024-01-30T08:44:26;3.60;;;3.30;;
11691;SDS011;33659;42.672;23.354;2024-01-30T08:46:53;3.57;;;2.50;;
11691;SDS011;33659;42.672;23.354;2024-01-30T08:49:20;4.07;;;2.97;;
11691;SDS011;33659;42.672;23.354;2024-01-30T08:51:46;3.50;;;2.90;;
11691;SDS011;33659;42.672;23.354;2024-01-30T08:54:14;3.07;;;2.80;;
11691;SDS011;33659;42.672;23.354;2024-01-30T08:56:41;5.70;;;2.90;;
11691;SDS011;33659;42.672;23.354;2024-01-30T08:59:08;3.40;;;3.10;;
11691;SDS011;33659;42.672;23.354;2024-01-30T09:01:35;8.53;;;3.30;;
11691;SDS011;33659;42.672;23.354;2024-01-30T09:04:02;4.13;;;3.27;;
11691;SDS011;33659;42.672;23.354;2024-01-30T09:06:29;4.30;;;3.27;;
11691;SDS011;33659;42.672;23.354;2024-01-30T09:08:56;3.57;;;3.10;;
11691;SDS011;33659;42.672;23.354;2024-01-30T09:11:23;4.20;;;3.07;;
11691;SDS011;33659;42.672;23.354;2024-01-30T09:13:51;4.37;;;3.30;;
11691;SDS011;33659;42.672;23.354;2024-01-30T09:16:18;5.97;;;2.93;;
11691;SDS011;33659;42.672;23.354;2024-01-30T09:18:45;3.40;;;2.77;;
11691;SDS011;33659;42.672;23.354;2024-01-30T09:21:11;5.13;;;3.40;;
11691;SDS011;33659;42.672;23.354;2024-01-30T09:23:38;7.77;;;3.07;;
11691;SDS011;33659;42.672;23.354;2024-01-30T09:26:05;4.73;;;3.17;;
11691;SDS011;33659;42.672;23.354;2024-01-30T09:28:31;3.13;;;2.83;;
11691;SDS011;33659;42.672;23.354;2024-01-30T09:30:59;3.53;;;3.23;;
11691;SDS011;33659;42.672;23.354;2024-01-30T09:33:26;3.23;;;2.87;;
11691;SDS011;33659;42.672;23.354;2024-01-30T09:35:52;4.13;;;2.90;;
11691;SDS011;33659;42.672;23.354;2024-01-30T09:38:19;2.57;;;2.37;;
11691;SDS011;33659;42.672;23.354;2024-01-30T09:40:46;3.13;;;2.83;;
11691;SDS011;33659;42.672;23.354;2024-01-30T09:43:20;4.37;;;3.00;;
11691;SDS011;33659;42.672;23.354;2024-01-30T09:45:49;3.43;;;2.73;;
11691;SDS011;33659;42.672;23.354;2024-01-30T09:48:18;3.03;;;2.60;;
11691;SDS011;33659;42.672;23.354;2024-01-30T09:50:45;3.20;;;2.90;;
11691;SDS011;33659;42.672;23.354;2024-01-30T09:53:12;2.87;;;2.67;;
11691;SDS011;33659;42.672;23.354;2024-01-30T09:55:42;3.97;;;2.97;;
11691;SDS011;33659;42.672;23.354;2024-01-30T09:58:09;3.63;;;2.90;;
11691;SDS011;33659;42.672;23.354;2024-01-30T10:00:35;6.33;;;3.00;;
11691;SDS011;33659;42.672;23.354;2024-01-30T10:03:02;4.33;;;2.93;;
11691;SDS011;33659;42.672;23.354;2024-01-30T10:05:31;3.57;;;2.60;;
11691;SDS011;33659;42.672;23.354;2024-01-30T10:07:59;5.43;;;3.20;;
11691;SDS011;33659;42.672;23.354;2024-01-30T10:10:25;3.47;;;2.53;;
11691;SDS011;33659;42.672;23.354;2024-01-30T10:12:52;4.00;;;2.97;;
11691;SDS011;33659;42.672;23.354;2024-01-30T10:15:18;3.03;;;2.33;;
11691;SDS011;33659;42.672;23.354;2024-01-30T10:17:45;3.20;;;2.07;;
11691;SDS011;33659;42.672;23.354;2024-01-30T10:20:12;3.00;;;2.70;;
11691;SDS011;33659;42.672;23.354;2024-01-30T10:22:41;2.90;;;2.70;;
11691;SDS011;33659;42.672;23.354;2024-01-30T10:25:09;3.50;;;3.20;;
11691;SDS011;33659;42.672;23.354;2024-01-30T10:27:36;2.50;;;2.30;;
11691;SDS011;33659;42.672;23.354;2024-01-30T10:30:03;3.10;;;2.80;;
11691;SDS011;33659;42.672;23.354;2024-01-30T10:32:30;4.60;;;3.30;;
11691;SDS011;33659;42.672;23.354;2024-01-30T10:34:57;3.30;;;2.63;;
11691;SDS011;33659;42.672;23.354;2024-01-30T10:37:25;3.57;;;2.50;;
11691;SDS011;33659;42.672;23.354;2024-01-30T10:39:54;3.47;;;3.17;;
11691;SDS011;33659;42.672;23.354;2024-01-30T10:42:23;3.83;;;3.00;;
11691;SDS011;33659;42.672;23.354;2024-01-30T10:44:56;6.30;;;3.47;;
11691;SDS011;33659;42.672;23.354;2024-01-30T10:47:26;2.73;;;2.53;;
11691;SDS011;33659;42.672;23.354;2024-01-30T10:49:54;7.03;;;2.40;;
11691;SDS011;33659;42.672;23.354;2024-01-30T10:52:22;2.63;;;2.13;;
11691;SDS011;33659;42.672;23.354;2024-01-30T10:54:50;4.07;;;2.83;;
11691;SDS011;33659;42.672;23.354;2024-01-30T10:57:19;2.40;;;2.13;;
11691;SDS011;33659;42.672;23.354;2024-01-30T10:59:46;2.47;;;2.27;;
11691;SDS011;33659;42.672;23.354;2024-01-30T11:02:14;2.53;;;2.33;;
11691;SDS011;33659;42.672;23.354;2024-01-30T11:04:41;2.50;;;2.30;;
11691;SDS011;33659;42.672;23.354;2024-01-30T11:07:13;4.30;;;3.07;;
11691;SDS011;33659;42.672;23.354;2024-01-30T11:09:41;4.07;;;2.93;;
11691;SDS011;33659;42.672;23.354;2024-01-30T11:12:14;4.53;;;3.13;;
11691;SDS011;33659;42.672;23.354;2024-01-30T11:14:42;2.70;;;2.33;;
11691;SDS011;33659;42.672;23.354;2024-01-30T11:17:09;3.57;;;2.40;;
11691;SDS011;33659;42.672;23.354;2024-01-30T11:19:37;3.03;;;2.13;;
11691;SDS011;33659;42.672;23.354;2024-01-30T11:22:06;2.93;;;2.60;;
11691;SDS011;33659;42.672;23.354;2024-01-30T11:24:36;3.10;;;2.60;;
11691;SDS011;33659;42.672;23.354;2024-01-30T11:27:07;2.50;;;2.30;;
11691;SDS011;33659;42.672;23.354;2024-01-30T11:29:35;4.30;;;2.73;;
11691;SDS011;33659;42.672;23.354;2024-01-30T11:32:04;3.67;;;2.80;;
11691;SDS011;33659;42.672;23.354;2024-01-30T11:34:32;3.93;;;2.80;;
11691;SDS011;33659;42.672;23.354;2024-01-30T11:37:01;3.57;;;2.50;;
11691;SDS011;33659;42.672;23.354;2024-01-30T11:39:32;2.33;;;2.23;;
11691;SDS011;33659;42.672;23.354;2024-01-30T11:41:59;2.63;;;2.43;;
11691;SDS011;33659;42.672;23.354;2024-01-30T11:44:26;2.77;;;2.47;;
11691;SDS011;33659;42.672;23.354;2024-01-30T11:46:52;3.00;;;2.50;;
11691;SDS011;33659;42.672;23.354;2024-01-30T11:49:20;2.57;;;2.30;;
11691;SDS011;33659;42.672;23.354;2024-01-30T11:51:48;3.97;;;2.70;;
11691;SDS011;33659;42.672;23.354;2024-01-30T11:54:14;3.03;;;2.73;;
11691;SDS011;33659;42.672;23.354;2024-01-30T11:56:42;3.17;;;2.53;;
11691;SDS011;33659;42.672;23.354;2024-01-30T11:59:09;3.03;;;2.73;;
11691;SDS011;33659;42.672;23.354;2024-01-30T12:01:36;4.33;;;2.17;;
11691;SDS011;33659;42.672;23.354;2024-01-30T12:04:02;3.90;;;2.60;;
11691;SDS011;33659;42.672;23.354;2024-01-30T12:06:35;3.27;;;2.97;;
11691;SDS011;33659;42.672;23.354;2024-01-30T12:09:02;3.23;;;2.63;;
11691;SDS011;33659;42.672;23.354;2024-01-30T12:11:30;3.03;;;2.73;;
11691;SDS011;33659;42.672;23.354;2024-01-30T12:13:57;2.80;;;2.60;;
11691;SDS011;33659;42.672;23.354;2024-01-30T12:16:24;5.27;;;2.83;;
11691;SDS011;33659;42.672;23.354;2024-01-30T12:18:59;3.23;;;2.50;;
11691;SDS011;33659;42.672;23.354;2024-01-30T12:21:26;4.27;;;2.80;;
11691;SDS011;33659;42.672;23.354;2024-01-30T12:23:54;3.80;;;2.87;;
11691;SDS011;33659;42.672;23.354;2024-01-30T12:26:21;2.40;;;2.20;;
11691;SDS011;33659;42.672;23.354;2024-01-30T12:28:48;3.07;;;2.77;;
11691;SDS011;33659;42.672;23.354;2024-01-30T12:31:15;3.63;;;2.93;;
11691;SDS011;33659;42.672;23.354;2024-01-30T12:33:42;5.27;;;2.90;;
11691;SDS011;33659;42.672;23.354;2024-01-30T12:36:08;2.70;;;2.50;;
11691;SDS011;33659;42.672;23.354;2024-01-30T12:38:35;3.47;;;2.73;;
11691;SDS011;33659;42.672;23.354;2024-01-30T12:41:04;5.77;;;2.90;;
11691;SDS011;33659;42.672;23.354;2024-01-30T12:43:32;3.20;;;2.90;;
11691;SDS011;33659;42.672;23.354;2024-01-30T12:45:59;2.60;;;2.40;;
11691;SDS011;33659;42.672;23.354;2024-01-30T12:48:26;2.50;;;2.30;;
11691;SDS011;33659;42.672;23.354;2024-01-30T12:50:54;3.03;;;2.72;;
11691;SDS011;33659;42.672;23.354;2024-01-30T12:53:20;3.30;;;2.63;;
11691;SDS011;33659;42.672;23.354;2024-01-30T12:55:47;3.67;;;2.67;;
11691;SDS011;33659;42.672;23.354;2024-01-30T12:58:16;3.65;;;3.28;;
11691;SDS011;33659;42.672;23.354;2024-01-30T13:00:43;3.10;;;2.60;;
11691;SDS011;33659;42.672;23.354;2024-01-30T13:03:10;5.95;;;2.70;;
11691;SDS011;33659;42.672;23.354;2024-01-30T13:05:36;3.17;;;2.58;;
11691;SDS011;33659;42.672;23.354;2024-01-30T13:08:03;3.15;;;2.67;;
11691;SDS011;33659;42.672;23.354;2024-01-30T13:10:31;4.20;;;2.70;;
11691;SDS011;33659;42.672;23.354;2024-01-30T13:12:57;3.15;;;2.65;;
11691;SDS011;33659;42.672;23.354;2024-01-30T13:15:25;4.15;;;2.63;;
11691;SDS011;33659;42.672;23.354;2024-01-30T13:17:52;5.32;;;2.85;;
11691;SDS011;33659;42.672;23.354;2024-01-30T13:20:19;3.53;;;2.85;;
11691;SDS011;33659;42.672;23.354;2024-01-30T13:22:47;3.95;;;3.13;;
11691;SDS011;33659;42.672;23.354;2024-01-30T13:25:14;4.00;;;2.80;;
11691;SDS011;33659;42.672;23.354;2024-01-30T13:27:41;3.67;;;2.80;;
11691;SDS011;33659;42.672;23.354;2024-01-30T13:30:08;3.97;;;2.90;;
11691;SDS011;33659;42.672;23.354;2024-01-30T13:32:36;3.10;;;2.80;;
11691;SDS011;33659;42.672;23.354;2024-01-30T13:35:04;3.97;;;3.05;;
11691;SDS011;33659;42.672;23.354;2024-01-30T13:37:31;3.70;;;2.90;;
11691;SDS011;33659;42.672;23.354;2024-01-30T13:39:57;5.15;;;3.05;;
11691;SDS011;33659;42.672;23.354;2024-01-30T13:42:24;3.50;;;3.00;;
11691;SDS011;33659;42.672;23.354;2024-01-30T13:44:51;4.93;;;2.80;;
11691;SDS011;33659;42.672;23.354;2024-01-30T13:47:18;3.38;;;3.08;;
11691;SDS011;33659;42.672;23.354;2024-01-30T13:49:47;4.80;;;2.90;;
11691;SDS011;33659;42.672;23.354;2024-01-30T13:52:14;4.45;;;2.90;;
11691;SDS011;33659;42.672;23.354;2024-01-30T13:54:41;3.72;;;2.83;;
11691;SDS011;33659;42.672;23.354;2024-01-30T13:57:08;4.23;;;3.00;;
11691;SDS011;33659;42.672;23.354;2024-01-30T13:59:34;4.03;;;3.07;;
11691;SDS011;33659;42.672;23.354;2024-01-30T14:02:01;4.47;;;3.30;;
11691;SDS011;33659;42.672;23.354;2024-01-30T14:04:28;4.10;;;3.10;;
11691;SDS011;33659;42.672;23.354;2024-01-30T14:06:56;5.90;;;3.20;;
11691;SDS011;33659;42.672;23.354;2024-01-30T14:09:23;4.47;;;3.90;;
11691;SDS011;33659;42.672;23.354;2024-01-30T14:11:50;3.80;;;3.10;;
11691;SDS011;33659;42.672;23.354;2024-01-30T14:14:16;4.40;;;3.03;;
11691;SDS011;33659;42.672;23.354;2024-01-30T14:16:43;3.90;;;2.87;;
11691;SDS011;33659;42.672;23.354;2024-01-30T14:19:10;4.17;;;3.57;;
11691;SDS011;33659;42.672;23.354;2024-01-30T14:21:36;9.97;;;3.87;;
11691;SDS011;33659;42.672;23.354;2024-01-30T14:24:05;4.90;;;3.20;;
11691;SDS011;33659;42.672;23.354;2024-01-30T14:26:32;4.77;;;3.60;;
11691;SDS011;33659;42.672;23.354;2024-01-30T14:28:58;3.83;;;3.40;;
11691;SDS011;33659;42.672;23.354;2024-01-30T14:31:25;9.13;;;3.37;;
11691;SDS011;33659;42.672;23.354;2024-01-30T14:33:51;3.70;;;2.90;;